CPX785 Details

Departure: Tan Son Nhat International Airport (VVTS)
Arrival: Incheon International Airport (RKSI) at N/A
Route: TANOS1B PTH N500 AGSAM L625 ABVAR M646 POTIB Q11 DRAKE Q11 WP900 L4 LIPLO Y741 BOLUT B576 OLMEN OLMEN1P
Notes:


Current Weather Information
VVTS 250530Z 28009KT 250V320 9999 -SHRA BKN015 FEW017TCU 31/25 Q1007 TEMPO TL0605 25015G26KT 5000 SHRA RMK TCU OVER RWY
RKSI 250530Z 29009KT 9999 FEW030 28/16 Q1013 NOSIG